createdAt,value
2016-10-16T00:00:58.865Z,1020.15
2016-10-16T00:01:58.885Z,1020.16
2016-10-16T00:02:58.909Z,1020.21
2016-10-16T00:03:58.934Z,1020.2
2016-10-16T00:04:58.947Z,1020.24
2016-10-16T00:05:58.964Z,1020.3
2016-10-16T00:06:58.989Z,1020.24
2016-10-16T00:07:59.009Z,1020.24
2016-10-16T00:08:59.028Z,1020.27
2016-10-16T00:09:59.050Z,1020.28
2016-10-16T00:10:59.075Z,1020.31
2016-10-16T00:11:59.093Z,1020.3
2016-10-16T00:12:59.110Z,1020.31
2016-10-16T00:13:59.127Z,1020.34
2016-10-16T00:14:59.154Z,1020.33
2016-10-16T00:15:59.170Z,1020.36
2016-10-16T00:16:59.199Z,1020.36
2016-10-16T00:17:59.213Z,1020.33
2016-10-16T00:18:59.238Z,1020.35
2016-10-16T00:19:59.259Z,1020.35
2016-10-16T00:20:59.276Z,1020.39
2016-10-16T00:21:59.292Z,1020.36
2016-10-16T00:22:59.329Z,1020.38
2016-10-16T00:23:59.336Z,1020.34
2016-10-16T00:24:59.362Z,1020.36
2016-10-16T00:25:59.376Z,1020.38
2016-10-16T00:26:59.398Z,1020.36
2016-10-16T00:27:59.417Z,1020.38
2016-10-16T00:28:59.436Z,1020.36
2016-10-16T00:29:59.459Z,1020.36
2016-10-16T00:30:59.486Z,1020.39
2016-10-16T00:31:59.497Z,1020.38
2016-10-16T00:32:59.525Z,1020.38
2016-10-16T00:33:59.540Z,1020.41
2016-10-16T00:34:59.563Z,1020.42
2016-10-16T00:35:59.579Z,1020.43
2016-10-16T00:36:59.599Z,1020.43
2016-10-16T00:37:59.640Z,1020.46
2016-10-16T00:38:59.640Z,1020.47
2016-10-16T00:39:59.661Z,1020.51
2016-10-16T00:40:59.684Z,1020.46
2016-10-16T00:41:59.707Z,1020.47
2016-10-16T00:42:59.718Z,1020.49
2016-10-16T00:43:59.745Z,1020.49
2016-10-16T00:44:59.764Z,1020.51
2016-10-16T00:45:59.784Z,1020.51
2016-10-16T00:46:59.808Z,1020.54
2016-10-16T00:47:59.821Z,1020.58
2016-10-16T00:48:59.845Z,1020.53
2016-10-16T00:49:59.869Z,1020.55
2016-10-16T00:50:59.883Z,1020.54
2016-10-16T00:51:59.915Z,1020.56
2016-10-16T00:52:59.923Z,1020.53
2016-10-16T00:53:59.942Z,1020.58
2016-10-16T00:54:59.962Z,1020.54
2016-10-16T00:55:59.985Z,1020.54
2016-10-16T00:57:00.003Z,1020.52
2016-10-16T00:58:00.037Z,1020.52
2016-10-16T00:59:00.049Z,1020.54
2016-10-16T01:00:00.063Z,1020.51
2016-10-16T01:01:00.087Z,1020.52
2016-10-16T01:02:00.104Z,1020.5
2016-10-16T01:03:00.127Z,1020.52
2016-10-16T01:04:00.142Z,1020.49
2016-10-16T01:05:00.163Z,1020.49
2016-10-16T01:06:00.189Z,1020.49
2016-10-16T01:07:00.199Z,1020.51
2016-10-16T01:08:00.221Z,1020.5
2016-10-16T01:09:00.242Z,1020.52
2016-10-16T01:10:00.269Z,1020.48
2016-10-16T01:11:00.315Z,1020.5
2016-10-16T01:12:00.303Z,1020.51
2016-10-16T01:13:00.313Z,1020.49
2016-10-16T01:14:00.341Z,1020.54
2016-10-16T01:15:00.357Z,1020.52
2016-10-16T01:16:00.378Z,1020.55
2016-10-16T01:17:00.394Z,1020.59
2016-10-16T01:18:00.412Z,1020.59
2016-10-16T01:19:00.437Z,1020.59
2016-10-16T01:20:00.455Z,1020.59
2016-10-16T01:21:00.474Z,1020.6
2016-10-16T01:22:00.804Z,1020.58
2016-10-16T01:23:00.517Z,1020.59
2016-10-16T01:24:00.629Z,1020.59
2016-10-16T01:25:00.544Z,1020.56
2016-10-16T01:26:00.573Z,1020.52
2016-10-16T01:27:00.587Z,1020.52
2016-10-16T01:28:00.608Z,1020.55
2016-10-16T01:29:00.623Z,1020.53
2016-10-16T01:30:00.644Z,1020.56
2016-10-16T01:31:00.668Z,1020.51
2016-10-16T01:32:00.688Z,1020.55
2016-10-16T01:33:00.703Z,1020.54
2016-10-16T01:34:00.725Z,1020.54
2016-10-16T01:35:00.747Z,1020.57
2016-10-16T01:36:00.756Z,1020.56
2016-10-16T01:37:00.773Z,1020.53
2016-10-16T01:38:00.797Z,1020.57
2016-10-16T01:39:00.817Z,1020.57
2016-10-16T01:40:00.836Z,1020.55
2016-10-16T01:41:00.851Z,1020.54
2016-10-16T01:42:00.873Z,1020.55
2016-10-16T01:43:00.886Z,1020.54
2016-10-16T01:44:00.903Z,1020.55
2016-10-16T01:45:00.922Z,1020.56
2016-10-16T01:46:00.944Z,1020.56
2016-10-16T01:47:00.963Z,1020.56
2016-10-16T01:48:00.987Z,1020.59
2016-10-16T01:49:01.007Z,1020.56
2016-10-16T01:50:01.017Z,1020.53
2016-10-16T01:51:01.031Z,1020.59
2016-10-16T01:52:01.050Z,1020.56
2016-10-16T01:53:01.077Z,1020.58
2016-10-16T01:54:01.091Z,1020.51
2016-10-16T01:55:01.115Z,1020.53
2016-10-16T01:56:01.137Z,1020.48
2016-10-16T01:57:01.150Z,1020.51
2016-10-16T01:58:01.167Z,1020.48
2016-10-16T01:59:01.183Z,1020.48
2016-10-16T02:00:01.200Z,1020.47
2016-10-16T02:01:01.225Z,1020.5
2016-10-16T02:02:01.238Z,1020.49
2016-10-16T02:03:01.256Z,1020.48
2016-10-16T02:04:01.278Z,1020.52
2016-10-16T02:05:01.296Z,1020.51
2016-10-16T02:06:01.305Z,1020.53
2016-10-16T02:07:01.329Z,1020.51
2016-10-16T02:08:01.357Z,1020.54
2016-10-16T02:09:01.363Z,1020.5
2016-10-16T02:10:01.396Z,1020.47
2016-10-16T02:11:01.406Z,1020.48
2016-10-16T02:12:01.422Z,1020.48
2016-10-16T02:13:01.437Z,1020.51
2016-10-16T02:14:01.457Z,1020.5
2016-10-16T02:15:01.484Z,1020.51
2016-10-16T02:16:01.504Z,1020.53
2016-10-16T02:17:01.510Z,1020.55
2016-10-16T02:18:01.535Z,1020.58
2016-10-16T02:19:01.547Z,1020.51
2016-10-16T02:20:01.561Z,1020.57
2016-10-16T02:21:01.588Z,1020.58
2016-10-16T02:22:01.602Z,1020.56
2016-10-16T02:23:01.624Z,1020.56
2016-10-16T02:24:01.641Z,1020.57
2016-10-16T02:25:01.659Z,1020.55
2016-10-16T02:26:01.682Z,1020.57
2016-10-16T02:27:01.696Z,1020.55
2016-10-16T02:28:01.705Z,1020.53
2016-10-16T02:29:01.729Z,1020.53
2016-10-16T02:30:01.746Z,1020.5
2016-10-16T02:31:01.765Z,1020.54
2016-10-16T02:32:01.783Z,1020.53
2016-10-16T02:33:01.803Z,1020.54
2016-10-16T02:34:01.822Z,1020.56
2016-10-16T02:35:01.830Z,1020.55
2016-10-16T02:36:01.855Z,1020.55
2016-10-16T02:37:01.876Z,1020.57
2016-10-16T02:38:01.890Z,1020.57
2016-10-16T02:39:01.912Z,1020.57
2016-10-16T02:40:01.924Z,1020.6
2016-10-16T02:41:01.941Z,1020.61
2016-10-16T02:42:02.017Z,1020.6
2016-10-16T02:43:01.978Z,1020.62
2016-10-16T02:44:01.991Z,1020.66
2016-10-16T02:45:02.018Z,1020.64
2016-10-16T02:46:02.032Z,1020.64
2016-10-16T02:47:02.051Z,1020.65
2016-10-16T02:48:02.071Z,1020.65
2016-10-16T02:49:02.082Z,1020.68
2016-10-16T02:50:02.103Z,1020.64
2016-10-16T02:51:02.119Z,1020.69
2016-10-16T02:52:02.197Z,1020.66
2016-10-16T02:53:02.161Z,1020.67
2016-10-16T02:54:02.178Z,1020.65
2016-10-16T02:55:02.291Z,1020.63
2016-10-16T02:56:02.214Z,1020.66
2016-10-16T02:57:02.281Z,1020.6
2016-10-16T02:58:02.249Z,1020.62
2016-10-16T02:59:02.268Z,1020.6
2016-10-16T03:00:02.284Z,1020.64
2016-10-16T03:01:02.298Z,1020.62
2016-10-16T03:02:02.317Z,1020.6
2016-10-16T03:03:02.333Z,1020.59
2016-10-16T03:04:02.358Z,1020.57
2016-10-16T03:05:02.363Z,1020.56
2016-10-16T03:06:02.388Z,1020.57
2016-10-16T03:07:02.404Z,1020.59
2016-10-16T03:08:02.574Z,1020.52
2016-10-16T03:09:02.448Z,1020.55
2016-10-16T03:10:02.513Z,1020.57
2016-10-16T03:11:02.473Z,1020.56
2016-10-16T03:12:02.492Z,1020.58
2016-10-16T03:13:02.504Z,1020.56
2016-10-16T03:14:02.534Z,1020.57
2016-10-16T03:15:02.543Z,1020.56
2016-10-16T03:16:02.564Z,1020.62
2016-10-16T03:17:02.583Z,1020.63
2016-10-16T03:18:02.608Z,1020.66
2016-10-16T03:19:02.743Z,1020.67
2016-10-16T03:20:02.642Z,1020.66
2016-10-16T03:21:02.748Z,1020.73
2016-10-16T03:22:02.673Z,1020.72
2016-10-16T03:23:02.696Z,1020.73
2016-10-16T03:24:02.705Z,1020.73
2016-10-16T03:25:02.724Z,1020.75
2016-10-16T03:26:02.739Z,1020.77
2016-10-16T03:27:02.755Z,1020.76
2016-10-16T03:28:02.772Z,1020.77
2016-10-16T03:29:02.795Z,1020.79
2016-10-16T03:30:02.813Z,1020.8
2016-10-16T03:31:02.835Z,1020.8
2016-10-16T03:32:02.857Z,1020.81
2016-10-16T03:33:02.874Z,1020.84
2016-10-16T03:34:02.887Z,1020.8
2016-10-16T03:35:02.905Z,1020.82
2016-10-16T03:36:02.928Z,1020.83
2016-10-16T03:37:02.940Z,1020.85
2016-10-16T03:38:02.953Z,1020.84
2016-10-16T03:39:02.968Z,1020.87
2016-10-16T03:40:03.001Z,1020.87
2016-10-16T03:41:03.011Z,1020.87
2016-10-16T03:42:03.030Z,1020.86
2016-10-16T03:43:03.062Z,1020.88
2016-10-16T03:44:03.071Z,1020.87
2016-10-16T03:45:03.079Z,1020.9
2016-10-16T03:46:03.096Z,1020.91
2016-10-16T03:47:03.115Z,1020.95
2016-10-16T03:48:03.134Z,1020.91
2016-10-16T03:49:03.155Z,1020.92
2016-10-16T03:50:03.164Z,1020.92
2016-10-16T03:51:03.188Z,1020.92
2016-10-16T03:52:03.206Z,1020.9
2016-10-16T03:53:03.223Z,1020.93
2016-10-16T03:54:03.240Z,1020.9
2016-10-16T03:55:03.260Z,1020.9
2016-10-16T03:56:03.278Z,1020.92
2016-10-16T03:57:03.287Z,1020.93
2016-10-16T03:58:03.310Z,1020.9
2016-10-16T03:59:03.332Z,1020.97
2016-10-16T04:00:03.347Z,1020.94
2016-10-16T04:01:03.361Z,1020.97
2016-10-16T04:02:03.376Z,1020.98
2016-10-16T04:03:03.403Z,1021.01
2016-10-16T04:04:03.421Z,1021.02
2016-10-16T04:05:03.434Z,1021.05
2016-10-16T04:06:03.452Z,1021.06
2016-10-16T04:07:03.462Z,1021.09
2016-10-16T04:08:03.493Z,1021.05
2016-10-16T04:09:03.498Z,1021.09
2016-10-16T04:10:03.519Z,1021.13
2016-10-16T04:11:03.536Z,1021.09
2016-10-16T04:12:03.566Z,1021.14
2016-10-16T04:13:03.571Z,1021.11
2016-10-16T04:14:03.588Z,1021.12
2016-10-16T04:15:03.609Z,1021.12
2016-10-16T04:16:03.620Z,1021.09
2016-10-16T04:17:03.639Z,1021.11
2016-10-16T04:18:03.658Z,1021.11
2016-10-16T04:19:03.674Z,1021.12
2016-10-16T04:20:03.691Z,1021.11
2016-10-16T04:21:03.711Z,1021.16
2016-10-16T04:22:03.731Z,1021.15
2016-10-16T04:23:03.750Z,1021.22
2016-10-16T04:24:03.766Z,1021.23
2016-10-16T04:25:03.781Z,1021.24
2016-10-16T04:26:03.801Z,1021.26
2016-10-16T04:27:03.816Z,1021.25
2016-10-16T04:28:03.836Z,1021.24
2016-10-16T04:29:03.846Z,1021.2
2016-10-16T04:30:03.873Z,1021.22
2016-10-16T04:31:03.891Z,1021.22
2016-10-16T04:32:03.905Z,1021.2
2016-10-16T04:33:03.922Z,1021.19
2016-10-16T04:34:03.943Z,1021.15
2016-10-16T04:35:03.963Z,1021.18
2016-10-16T04:36:03.974Z,1021.2
2016-10-16T04:37:03.995Z,1021.2
2016-10-16T04:38:04.006Z,1021.24
2016-10-16T04:39:04.033Z,1021.24
2016-10-16T04:40:04.043Z,1021.24
2016-10-16T04:41:04.167Z,1021.24
2016-10-16T04:42:04.080Z,1021.24
2016-10-16T04:43:04.192Z,1021.26
2016-10-16T04:44:04.116Z,1021.24
2016-10-16T04:45:04.132Z,1021.23
2016-10-16T04:46:04.147Z,1021.24
2016-10-16T04:47:04.171Z,1021.26
2016-10-16T04:48:04.186Z,1021.28
2016-10-16T04:49:04.200Z,1021.34
2016-10-16T04:50:04.219Z,1021.34
2016-10-16T04:51:04.236Z,1021.32
2016-10-16T04:52:04.260Z,1021.37
2016-10-16T04:53:04.269Z,1021.37
2016-10-16T04:54:04.290Z,1021.39
2016-10-16T04:55:04.300Z,1021.44
2016-10-16T04:56:04.372Z,1021.45
2016-10-16T04:57:04.332Z,1021.45
2016-10-16T04:58:04.353Z,1021.48
2016-10-16T04:59:04.367Z,1021.46
2016-10-16T05:00:04.389Z,1021.49
2016-10-16T05:01:04.408Z,1021.47
2016-10-16T05:02:04.426Z,1021.46
2016-10-16T05:03:04.441Z,1021.47
2016-10-16T05:04:04.465Z,1021.48
2016-10-16T05:05:04.474Z,1021.52
2016-10-16T05:06:04.493Z,1021.52
2016-10-16T05:07:04.598Z,1021.51
2016-10-16T05:08:04.524Z,1021.54
2016-10-16T05:09:04.594Z,1021.52
2016-10-16T05:10:04.559Z,1021.5
2016-10-16T05:11:04.580Z,1021.52
2016-10-16T05:12:04.596Z,1021.54
2016-10-16T05:13:04.615Z,1021.52
2016-10-16T05:14:04.638Z,1021.58
2016-10-16T05:15:04.648Z,1021.57
2016-10-16T05:16:04.668Z,1021.58
2016-10-16T05:17:04.686Z,1021.58
2016-10-16T05:18:04.704Z,1021.57
2016-10-16T05:19:04.713Z,1021.53
2016-10-16T05:20:04.796Z,1021.56
2016-10-16T05:21:04.754Z,1021.54
2016-10-16T05:22:04.767Z,1021.49
2016-10-16T05:23:04.783Z,1021.5
2016-10-16T05:24:04.814Z,1021.48
2016-10-16T05:25:04.825Z,1021.52
2016-10-16T05:26:04.844Z,1021.49
2016-10-16T05:27:04.854Z,1021.52
2016-10-16T05:28:04.873Z,1021.54
2016-10-16T05:29:04.893Z,1021.57
2016-10-16T05:30:04.909Z,1021.57
2016-10-16T05:31:04.924Z,1021.58
2016-10-16T05:32:04.944Z,1021.57
2016-10-16T05:33:04.954Z,1021.58
2016-10-16T05:34:04.990Z,1021.58
2016-10-16T05:35:04.997Z,1021.6
2016-10-16T05:36:05.015Z,1021.58
2016-10-16T05:37:05.024Z,1021.59
2016-10-16T05:38:05.050Z,1021.61
2016-10-16T05:39:05.068Z,1021.61
2016-10-16T05:40:05.086Z,1021.61
2016-10-16T05:41:05.091Z,1021.58
2016-10-16T05:42:05.113Z,1021.58
2016-10-16T05:43:05.133Z,1021.6
2016-10-16T05:44:05.148Z,1021.62
2016-10-16T05:45:05.161Z,1021.64
2016-10-16T05:46:05.183Z,1021.65
2016-10-16T05:47:05.202Z,1021.66
2016-10-16T05:48:05.212Z,1021.67
2016-10-16T05:49:05.228Z,1021.7
2016-10-16T05:50:05.252Z,1021.67
2016-10-16T05:51:05.272Z,1021.66
2016-10-16T05:52:05.287Z,1021.68
2016-10-16T05:53:05.303Z,1021.69
2016-10-16T05:54:05.319Z,1021.65
2016-10-16T05:55:05.333Z,1021.69
2016-10-16T05:56:05.355Z,1021.72
2016-10-16T05:57:05.370Z,1021.69
2016-10-16T05:58:05.393Z,1021.7
2016-10-16T05:59:05.406Z,1021.72
2016-10-16T06:00:05.426Z,1021.73
2016-10-16T06:01:05.443Z,1021.7
2016-10-16T06:02:05.465Z,1021.76
2016-10-16T06:03:05.472Z,1021.74
2016-10-16T06:04:05.491Z,1021.77
2016-10-16T06:05:05.511Z,1021.75
2016-10-16T06:06:05.522Z,1021.77
2016-10-16T06:07:05.545Z,1021.76
2016-10-16T06:08:05.561Z,1021.75
2016-10-16T06:09:05.574Z,1021.81
2016-10-16T06:10:05.592Z,1021.81
2016-10-16T06:11:05.614Z,1021.8
2016-10-16T06:12:05.625Z,1021.8
2016-10-16T06:13:05.645Z,1021.82
2016-10-16T06:14:05.664Z,1021.82
2016-10-16T06:15:05.683Z,1021.78
2016-10-16T06:16:05.691Z,1021.81
2016-10-16T06:17:05.707Z,1021.81
2016-10-16T06:18:05.731Z,1021.81
2016-10-16T06:19:05.751Z,1021.83
2016-10-16T06:20:05.767Z,1021.85
2016-10-16T06:21:05.779Z,1021.85
2016-10-16T06:22:05.807Z,1021.84
2016-10-16T06:23:05.823Z,1021.85
2016-10-16T06:24:05.836Z,1021.88
2016-10-16T06:25:05.852Z,1021.86
2016-10-16T06:26:05.875Z,1021.87
2016-10-16T06:27:05.895Z,1021.88
2016-10-16T06:28:05.904Z,1021.91
2016-10-16T06:29:05.922Z,1021.91
2016-10-16T06:30:05.948Z,1021.92
2016-10-16T06:31:05.956Z,1021.92
2016-10-16T06:32:05.972Z,1021.96
2016-10-16T06:33:06.005Z,1021.95
2016-10-16T06:34:06.013Z,1022.03
2016-10-16T06:35:06.038Z,1022.03
2016-10-16T06:36:06.048Z,1022.05
2016-10-16T06:37:06.065Z,1022.07
2016-10-16T06:38:06.087Z,1022.05
2016-10-16T06:39:06.100Z,1022.08
2016-10-16T06:40:06.118Z,1022.08
2016-10-16T06:41:06.130Z,1022.1
2016-10-16T06:42:06.149Z,1022.13
2016-10-16T06:43:06.164Z,1022.11
2016-10-16T06:44:06.181Z,1022.14
2016-10-16T06:45:06.200Z,1022.16
2016-10-16T06:46:06.219Z,1022.15
2016-10-16T06:47:06.232Z,1022.17
2016-10-16T06:48:06.255Z,1022.19
2016-10-16T06:49:06.268Z,1022.2
2016-10-16T06:50:06.292Z,1022.19
2016-10-16T06:51:06.307Z,1022.19
2016-10-16T06:52:06.327Z,1022.2
2016-10-16T06:53:06.348Z,1022.21
2016-10-16T06:54:06.359Z,1022.19
2016-10-16T06:55:06.425Z,1022.23
2016-10-16T06:56:06.400Z,1022.21
2016-10-16T06:57:06.412Z,1022.2
2016-10-16T06:58:06.430Z,1022.2
2016-10-16T06:59:06.514Z,1022.23
2016-10-16T07:00:06.471Z,1022.25
2016-10-16T07:01:06.497Z,1022.26
2016-10-16T07:02:06.509Z,1022.25
2016-10-16T07:03:06.521Z,1022.28
2016-10-16T07:04:06.547Z,1022.24
2016-10-16T07:05:06.552Z,1022.24
2016-10-16T07:06:06.581Z,1022.28
2016-10-16T07:07:06.601Z,1022.24
2016-10-16T07:08:06.632Z,1022.25
2016-10-16T07:09:06.631Z,1022.26
2016-10-16T07:10:06.645Z,1022.25
2016-10-16T07:11:06.672Z,1022.26
2016-10-16T07:12:06.687Z,1022.27
2016-10-16T07:13:06.703Z,1022.3
2016-10-16T07:14:06.720Z,1022.29
2016-10-16T07:15:06.735Z,1022.3
2016-10-16T07:16:06.753Z,1022.33
2016-10-16T07:17:06.776Z,1022.31
2016-10-16T07:18:06.789Z,1022.33
2016-10-16T07:19:06.811Z,1022.34
2016-10-16T07:20:06.827Z,1022.32
2016-10-16T07:21:06.846Z,1022.33
2016-10-16T07:22:06.862Z,1022.35
2016-10-16T07:23:06.881Z,1022.33
2016-10-16T07:24:06.892Z,1022.35
2016-10-16T07:25:06.926Z,1022.33
2016-10-16T07:26:06.937Z,1022.33
2016-10-16T07:27:06.952Z,1022.35
2016-10-16T07:28:06.976Z,1022.35
2016-10-16T07:29:06.993Z,1022.41
2016-10-16T07:30:07.014Z,1022.4
2016-10-16T07:31:07.033Z,1022.41
2016-10-16T07:32:07.054Z,1022.42
2016-10-16T07:33:07.062Z,1022.4
2016-10-16T07:34:07.083Z,1022.43
2016-10-16T07:35:07.107Z,1022.46
2016-10-16T07:36:07.124Z,1022.44
2016-10-16T07:37:07.138Z,1022.48
2016-10-16T07:38:07.162Z,1022.51
2016-10-16T07:39:07.170Z,1022.45
2016-10-16T07:40:07.200Z,1022.51
2016-10-16T07:41:07.214Z,1022.51
2016-10-16T07:42:07.241Z,1022.55
2016-10-16T07:43:07.250Z,1022.56
2016-10-16T07:44:07.273Z,1022.58
2016-10-16T07:45:07.291Z,1022.62
2016-10-16T07:46:07.313Z,1022.58
2016-10-16T07:47:07.332Z,1022.61
2016-10-16T07:48:07.347Z,1022.6
2016-10-16T07:49:07.373Z,1022.64
2016-10-16T07:50:07.393Z,1022.63
2016-10-16T07:51:07.412Z,1022.63
2016-10-16T07:52:07.421Z,1022.66
2016-10-16T07:53:07.456Z,1022.64
2016-10-16T07:54:07.463Z,1022.72
2016-10-16T07:55:07.482Z,1022.72
2016-10-16T07:56:07.499Z,1022.72
2016-10-16T07:57:07.529Z,1022.71
2016-10-16T07:58:07.539Z,1022.72
2016-10-16T07:59:07.569Z,1022.73
2016-10-16T08:00:07.580Z,1022.7
2016-10-16T08:01:07.599Z,1022.74
2016-10-16T08:02:07.624Z,1022.74
2016-10-16T08:03:07.642Z,1022.75
2016-10-16T08:04:07.657Z,1022.76
2016-10-16T08:05:07.684Z,1022.79
2016-10-16T08:06:07.707Z,1022.81
2016-10-16T08:07:07.712Z,1022.82
2016-10-16T08:08:07.752Z,1022.8
2016-10-16T08:09:07.756Z,1022.83
2016-10-16T08:10:07.776Z,1022.85
2016-10-16T08:11:07.796Z,1022.83
2016-10-16T08:12:07.819Z,1022.88
2016-10-16T08:13:07.836Z,1022.91
2016-10-16T08:14:07.863Z,1022.92
2016-10-16T08:15:07.875Z,1022.9
2016-10-16T08:16:07.892Z,1022.93
2016-10-16T08:17:07.917Z,1022.94
2016-10-16T08:18:07.931Z,1022.94
2016-10-16T08:19:07.955Z,1022.92
2016-10-16T08:20:07.985Z,1022.95
2016-10-16T08:21:07.997Z,1022.95
2016-10-16T08:22:08.016Z,1022.97
2016-10-16T08:23:08.035Z,1023
2016-10-16T08:24:08.061Z,1022.97
2016-10-16T08:25:08.083Z,1023.02
2016-10-16T08:26:08.108Z,1023.03
2016-10-16T08:27:08.119Z,1023.07
2016-10-16T08:28:08.133Z,1023.05
2016-10-16T08:29:08.366Z,1023.08
2016-10-16T08:30:08.182Z,1023.06
2016-10-16T08:31:08.202Z,1023.04
2016-10-16T08:32:08.231Z,1023.06
2016-10-16T08:33:08.244Z,1023.06
2016-10-16T08:34:08.268Z,1023.07
2016-10-16T08:35:08.295Z,1023.07
2016-10-16T08:36:08.304Z,1023.1
2016-10-16T08:37:08.387Z,1023.05
2016-10-16T08:38:08.349Z,1023.05
2016-10-16T08:39:08.387Z,1023.08
2016-10-16T08:40:08.385Z,1023.04
2016-10-16T08:41:08.402Z,1023.08
2016-10-16T08:42:08.437Z,1023.07
2016-10-16T08:43:08.453Z,1023.04
2016-10-16T08:44:08.473Z,1023.08
2016-10-16T08:45:08.496Z,1023.06
2016-10-16T08:46:08.513Z,1023.12
2016-10-16T08:47:08.544Z,1023.08
2016-10-16T08:48:08.558Z,1023.1
2016-10-16T08:49:08.581Z,1023.11
2016-10-16T08:50:08.611Z,1023.14
2016-10-16T08:51:08.622Z,1023.13
2016-10-16T08:52:08.648Z,1023.09
2016-10-16T08:53:08.669Z,1023.14
2016-10-16T08:54:08.684Z,1023.18
2016-10-16T08:55:08.753Z,1023.16
2016-10-16T08:56:08.724Z,1023.16
2016-10-16T08:57:08.755Z,1023.19
2016-10-16T08:58:08.769Z,1023.21
2016-10-16T08:59:08.788Z,1023.2
2016-10-16T09:00:08.808Z,1023.2
2016-10-16T09:01:08.832Z,1023.21
2016-10-16T09:02:08.850Z,1023.25
2016-10-16T09:03:08.929Z,1023.21
2016-10-16T09:04:08.895Z,1023.24
2016-10-16T09:05:08.915Z,1023.23
2016-10-16T09:06:08.948Z,1023.24
2016-10-16T09:07:08.962Z,1023.24
2016-10-16T09:08:08.977Z,1023.25
2016-10-16T09:09:08.999Z,1023.27
2016-10-16T09:10:09.027Z,1023.29
2016-10-16T09:11:09.048Z,1023.33
2016-10-16T09:12:09.065Z,1023.32
2016-10-16T09:13:09.084Z,1023.3
2016-10-16T09:14:09.109Z,1023.32
2016-10-16T09:15:09.131Z,1023.33
2016-10-16T09:16:09.152Z,1023.35
2016-10-16T09:17:09.176Z,1023.33
2016-10-16T09:18:09.190Z,1023.29
2016-10-16T09:19:09.221Z,1023.27
2016-10-16T09:20:09.232Z,1023.26
2016-10-16T09:21:09.255Z,1023.23
2016-10-16T09:22:09.276Z,1023.25
2016-10-16T09:23:09.292Z,1023.24
2016-10-16T09:24:09.320Z,1023.24
2016-10-16T09:25:09.343Z,1023.22
2016-10-16T09:26:09.366Z,1023.24
2016-10-16T09:27:09.385Z,1023.26
2016-10-16T09:28:09.402Z,1023.25
2016-10-16T09:29:09.415Z,1023.28
2016-10-16T09:30:09.456Z,1023.28
2016-10-16T09:31:09.468Z,1023.28
2016-10-16T09:32:09.485Z,1023.23
2016-10-16T09:33:09.519Z,1023.24
2016-10-16T09:34:09.523Z,1023.27
2016-10-16T09:35:09.554Z,1023.22
2016-10-16T09:36:09.569Z,1023.21
2016-10-16T09:37:09.590Z,1023.21
2016-10-16T09:38:09.609Z,1023.21
2016-10-16T09:39:09.624Z,1023.18
2016-10-16T09:40:09.648Z,1023.21
2016-10-16T09:41:09.666Z,1023.21
2016-10-16T09:42:09.699Z,1023.21
2016-10-16T09:43:09.721Z,1023.2
2016-10-16T09:44:09.738Z,1023.21
2016-10-16T09:45:09.752Z,1023.2
2016-10-16T09:46:09.782Z,1023.23
2016-10-16T09:47:09.794Z,1023.22
2016-10-16T09:48:09.818Z,1023.19
2016-10-16T09:49:09.837Z,1023.19
2016-10-16T09:50:09.857Z,1023.19
2016-10-16T09:51:09.880Z,1023.2
2016-10-16T09:52:09.899Z,1023.16
2016-10-16T09:53:09.918Z,1023.2
2016-10-16T09:54:09.946Z,1023.18
2016-10-16T09:55:09.957Z,1023.2
2016-10-16T09:56:09.978Z,1023.14
2016-10-16T09:57:10.007Z,1023.18
2016-10-16T09:58:10.032Z,1023.2
2016-10-16T09:59:10.044Z,1023.2
2016-10-16T10:00:10.062Z,1023.16
2016-10-16T10:01:10.088Z,1023.19
2016-10-16T10:02:10.206Z,1023.18
2016-10-16T10:03:10.129Z,1023.15
2016-10-16T10:04:10.203Z,1023.14
2016-10-16T10:05:10.166Z,1023.15
2016-10-16T10:06:10.192Z,1023.12
2016-10-16T10:07:10.205Z,1023.14
2016-10-16T10:08:10.228Z,1023.14
2016-10-16T10:09:10.252Z,1023.17
2016-10-16T10:10:10.268Z,1023.13
2016-10-16T10:11:10.290Z,1023.16
2016-10-16T10:12:10.321Z,1023.18
2016-10-16T10:13:10.331Z,1023.17
2016-10-16T10:14:10.349Z,1023.18
2016-10-16T10:15:10.414Z,1023.17
2016-10-16T10:16:10.398Z,1023.18
2016-10-16T10:17:10.478Z,1023.16
2016-10-16T10:18:10.433Z,1023.13
2016-10-16T10:19:10.456Z,1023.18
2016-10-16T10:20:10.480Z,1023.15
2016-10-16T10:21:10.508Z,1023.18
2016-10-16T10:22:10.517Z,1023.15
2016-10-16T10:23:10.539Z,1023.08
2016-10-16T10:24:10.563Z,1023.11
2016-10-16T10:25:10.580Z,1023.11
2016-10-16T10:26:10.602Z,1023.12
2016-10-16T10:27:10.621Z,1023.12
2016-10-16T10:28:10.652Z,1023.11
2016-10-16T10:29:10.657Z,1023.12
2016-10-16T10:30:10.681Z,1023.1
2016-10-16T10:31:10.707Z,1023.15
2016-10-16T10:32:10.724Z,1023.12
2016-10-16T10:33:10.747Z,1023.13
2016-10-16T10:34:10.767Z,1023.14
2016-10-16T10:35:10.798Z,1023.12
2016-10-16T10:36:10.804Z,1023.11
2016-10-16T10:37:10.837Z,1023.11
2016-10-16T10:38:10.847Z,1023.12
2016-10-16T10:39:11.035Z,1023.12
2016-10-16T10:40:10.888Z,1023.15
2016-10-16T10:41:10.919Z,1023.2
2016-10-16T10:42:10.936Z,1023.14
2016-10-16T10:43:10.949Z,1023.16
2016-10-16T10:44:10.970Z,1023.17
2016-10-16T10:45:10.996Z,1023.15
2016-10-16T10:46:11.018Z,1023.12
2016-10-16T10:47:11.036Z,1023.15
2016-10-16T10:48:11.071Z,1023.15
2016-10-16T10:49:11.087Z,1023.14
2016-10-16T10:50:11.106Z,1023.12
2016-10-16T10:51:11.119Z,1023.09
2016-10-16T10:52:11.143Z,1023.09
2016-10-16T10:53:11.167Z,1023.12
2016-10-16T10:54:11.187Z,1023.09
2016-10-16T10:55:11.207Z,1023.13
2016-10-16T10:56:11.231Z,1023.09
2016-10-16T10:57:11.249Z,1023.03
2016-10-16T10:58:11.274Z,1023.01
2016-10-16T10:59:11.297Z,1023.03
2016-10-16T11:00:11.320Z,1022.98
2016-10-16T11:01:11.331Z,1022.98
2016-10-16T11:02:11.355Z,1022.98
2016-10-16T11:03:11.387Z,1022.96
2016-10-16T11:04:11.400Z,1022.97
2016-10-16T11:05:11.425Z,1022.96
2016-10-16T11:06:11.443Z,1022.95
2016-10-16T11:07:11.470Z,1022.91
2016-10-16T11:08:11.484Z,1022.87
2016-10-16T11:09:11.510Z,1022.9
2016-10-16T11:10:11.539Z,1022.89
2016-10-16T11:11:11.557Z,1022.85
2016-10-16T11:12:11.575Z,1022.84
2016-10-16T11:13:11.595Z,1022.79
2016-10-16T11:14:11.610Z,1022.81
2016-10-16T11:15:11.637Z,1022.77
2016-10-16T11:16:11.656Z,1022.74
2016-10-16T11:17:11.687Z,1022.76
2016-10-16T11:18:11.709Z,1022.71
2016-10-16T11:19:11.728Z,1022.73
2016-10-16T11:20:11.747Z,1022.69
2016-10-16T11:21:11.771Z,1022.65
2016-10-16T11:22:11.791Z,1022.69
2016-10-16T11:23:11.818Z,1022.66
2016-10-16T11:24:11.837Z,1022.7
2016-10-16T11:25:11.860Z,1022.66
2016-10-16T11:26:11.881Z,1022.66
2016-10-16T11:27:11.897Z,1022.6
2016-10-16T11:28:11.922Z,1022.66
2016-10-16T11:29:11.943Z,1022.55
2016-10-16T11:30:11.964Z,1022.6
2016-10-16T11:31:11.984Z,1022.64
2016-10-16T11:32:12.007Z,1022.66
2016-10-16T11:33:12.030Z,1022.65
2016-10-16T11:34:12.047Z,1022.66
2016-10-16T11:35:12.066Z,1022.62
2016-10-16T11:36:12.112Z,1022.66
2016-10-16T11:37:12.128Z,1022.63
2016-10-16T11:38:12.183Z,1022.64
2016-10-16T11:39:12.369Z,1022.61
2016-10-16T11:40:12.342Z,1022.58
2016-10-16T11:41:12.207Z,1022.6
2016-10-16T11:42:12.226Z,1022.6
2016-10-16T11:43:12.262Z,1022.58
2016-10-16T11:44:12.270Z,1022.58
2016-10-16T11:45:12.291Z,1022.63
2016-10-16T11:46:12.315Z,1022.6
2016-10-16T11:47:12.336Z,1022.59
2016-10-16T11:48:12.369Z,1022.56
2016-10-16T11:49:12.386Z,1022.6
2016-10-16T11:50:12.409Z,1022.61
2016-10-16T11:51:12.458Z,1022.56
2016-10-16T11:52:12.440Z,1022.59
2016-10-16T11:53:12.478Z,1022.58
2016-10-16T11:54:12.491Z,1022.57
2016-10-16T11:55:12.519Z,1022.6
2016-10-16T11:56:12.537Z,1022.53
2016-10-16T11:57:12.569Z,1022.57
2016-10-16T11:58:12.580Z,1022.55
2016-10-16T11:59:12.605Z,1022.6
2016-10-16T12:00:12.628Z,1022.53
2016-10-16T12:01:12.645Z,1022.55
2016-10-16T12:02:12.670Z,1022.54
2016-10-16T12:03:12.686Z,1022.59
2016-10-16T12:04:12.723Z,1022.6
2016-10-16T12:05:12.739Z,1022.56
2016-10-16T12:06:12.754Z,1022.56
2016-10-16T12:07:12.776Z,1022.53
2016-10-16T12:08:12.800Z,1022.52
2016-10-16T12:09:12.824Z,1022.51